Airfield :
LOGIN :

Register | Disclaimer

   EN    FR    IT 

 










Legend :    VFR   Marginal VFR   IFR   Intensive IFR   Very Intensive IFR
Visi :
Ceiling :
>= 8 km
>= 3000ft
5 to 8 km
1000 to 3000 ft
1500m to 5 km
500 to 1000 ft
800 to 1500m
200 to 500 ft
< 800m
< 200 ft
Symbols :   Thunderstorms  Fog  Heavy snow  Heavy precipitations  Wind > 20 kt
SIGMETs :     Misc.  Thunderstorms  Icing  Turbulence  Mountain Waves  Volcanic Ashes







- Airport Elevation : 121 ft
- IATA code : HUY
- Download approach charts


EGNJ - Humberside

CURRENT METAR :
  • 190420Z AUTO 10013KT 9999 SCT033/// OVC038/// 09/05 Q1028

EXPIRED METARs :
  • 190350Z AUTO 10013KT 9999 FEW017/// BKN023/// BKN034/// 09/06 Q1027
  • 190320Z AUTO 07007KT 9999 FEW021/// SCT027/// OVC032/// 09/07 Q1027
  • 190250Z AUTO 09012KT 9999 FEW018/// SCT023/// BKN029/// 09/07 Q1028 RERA
  • 190220Z AUTO 08009KT 9999 FEW025/// SCT030/// OVC035/// 09/07 Q1028
  • 190150Z AUTO 07010KT 9999 FEW016/// SCT027/// OVC032/// 09/07 Q1028

TAF TAF EGNJ
Valid from the 19 at 03:00 until the 19 at 12:00 UTC


190201Z 1903/1912 07008KT 9999 SCT020
PROB30
TEMPO 1903/1906 3000 DZ BKN014
PROB30
TEMPO 1906/1912 7000 SHRA
ATIS : +44 1652 682 020
No reported NOTAMs for that airfield.



MET'MAP, your aeronautical weather chart ! - Copyright ORBIFLY December 2007 - Disclaimer

ORBIFLY MET'MAP TEAM :

Programming & Development : Alexandra Zaïnal
Concept & Development : Baudouin d'Aumeries
Co-Development & Prog : Marc-Olivier Méhu
Technical & hardware support : Manuel Goepfert

Contact : metmap@orbifly.com




SOURCES & CREDITS :

   NOAA